KLRJ/LRJ METAR and TAF weather

Enter ICAO airport designator
Station Type Date Time Source
KLRJ METAR 2021/09/24 05:35 UTC NOAA

KLRJ 240535Z AUTO 18005KT 10SM CLR 13/09 A2987 RMK AO2


Station Type Date Time Source
KLRJ Decoded METAR 2021/09/24 05:35 UTC NOAA

Le Mars, Le Mars Municipal Airport, IA, United States (KLRJ) 42-46-41N 096-11-37W
Sep 24, 2021 - 01:35 AM EDT / 2021.09.24 0535 UTC
Wind: from the S (180 degrees) at 6 MPH (5 KT):0
Visibility: 10 mile(s):0
Sky conditions: clear
Temperature: 55 F (13 C)
Dew Point: 48 F (9 C)
Relative Humidity: 76%
Pressure (altimeter): 29.87 in. Hg (1011 hPa)
ob: KLRJ 240535Z AUTO 18005KT 10SM CLR 13/09 A2987 RMK AO2
cycle: 5

Station Type Date Time Source
KLRJ TAF UTC NOAA

Error!

Example: see airport list